createdAt,value
2023-05-22T00:00:19.706Z,19.23
2023-05-22T00:02:48.419Z,20.20
2023-05-22T00:05:18.308Z,18.90
2023-05-22T00:07:46.488Z,18.10
2023-05-22T00:10:14.176Z,19.17
2023-05-22T00:12:41.861Z,18.40
2023-05-22T00:15:11.408Z,19.40
2023-05-22T00:17:40.468Z,16.97
2023-05-22T00:20:11.088Z,18.43
2023-05-22T00:22:39.181Z,18.80
2023-05-22T00:25:08.384Z,16.73
2023-05-22T00:27:36.074Z,17.77
2023-05-22T00:30:04.012Z,19.40
2023-05-22T00:32:31.621Z,18.07
2023-05-22T00:35:00.643Z,18.47
2023-05-22T00:37:28.736Z,17.10
2023-05-22T00:39:56.485Z,17.57
2023-05-22T00:42:24.313Z,17.90
2023-05-22T00:44:52.008Z,17.70
2023-05-22T00:47:19.678Z,16.80
2023-05-22T00:49:47.737Z,17.47
2023-05-22T00:52:17.735Z,19.20
2023-05-22T00:54:45.617Z,18.17
2023-05-22T00:57:14.208Z,16.80
2023-05-22T00:59:42.016Z,16.30
2023-05-22T01:02:10.084Z,18.10
2023-05-22T01:04:37.860Z,16.07
2023-05-22T01:07:06.054Z,17.83
2023-05-22T01:09:35.026Z,17.00
2023-05-22T01:12:14.325Z,18.20
2023-05-22T01:14:48.257Z,16.73
2023-05-22T01:17:24.857Z,18.37
2023-05-22T01:20:07.036Z,17.80
2023-05-22T01:23:32.981Z,17.30
2023-05-22T01:26:33.057Z,18.27
2023-05-22T01:29:15.354Z,17.40
2023-05-22T01:31:47.294Z,16.27
2023-05-22T01:34:17.354Z,16.63
2023-05-22T01:36:47.755Z,18.60
2023-05-22T01:39:16.968Z,16.23
2023-05-22T01:41:44.700Z,16.10
2023-05-22T01:44:12.353Z,17.50
2023-05-22T01:46:39.945Z,16.93
2023-05-22T01:49:09.302Z,18.53
2023-05-22T01:51:46.859Z,17.80
2023-05-22T01:54:20.363Z,17.57
2023-05-22T01:56:54.900Z,18.20
2023-05-22T01:59:30.831Z,16.97
2023-05-22T02:02:01.678Z,17.43
2023-05-22T02:04:32.356Z,17.87
2023-05-22T02:07:01.485Z,18.63
2023-05-22T02:09:31.756Z,16.50
2023-05-22T02:12:01.501Z,17.37
2023-05-22T02:14:30.378Z,17.13
2023-05-22T02:16:58.246Z,17.50
2023-05-22T02:19:25.925Z,18.67
2023-05-22T02:21:55.093Z,18.07
2023-05-22T02:24:23.581Z,18.50
2023-05-22T02:26:51.527Z,18.43
2023-05-22T02:29:19.172Z,17.70
2023-05-22T02:31:47.286Z,17.90
2023-05-22T02:34:15.003Z,18.47
2023-05-22T02:36:42.590Z,18.07
2023-05-22T02:39:11.701Z,18.83
2023-05-22T02:41:39.673Z,18.63
2023-05-22T02:44:07.384Z,18.57
2023-05-22T02:46:35.024Z,19.47
2023-05-22T02:49:02.633Z,18.50
2023-05-22T02:51:30.383Z,19.43
2023-05-22T02:53:58.649Z,18.97
2023-05-22T02:56:29.524Z,19.60
2023-05-22T02:58:57.505Z,20.30
2023-05-22T03:01:26.429Z,19.70
2023-05-22T03:03:54.968Z,19.40
2023-05-22T03:06:23.192Z,19.00
2023-05-22T03:08:50.988Z,18.70
2023-05-22T03:11:18.602Z,18.70
2023-05-22T03:13:47.564Z,20.00
2023-05-22T03:16:15.432Z,18.70
2023-05-22T03:18:43.281Z,17.33
2023-05-22T03:21:10.930Z,19.43
2023-05-22T03:23:38.535Z,18.90
2023-05-22T03:26:06.518Z,18.10
2023-05-22T03:28:34.166Z,18.90
2023-05-22T03:31:03.320Z,19.37
2023-05-22T03:33:31.073Z,18.17
2023-05-22T03:35:58.710Z,19.83
2023-05-22T03:38:26.282Z,16.50
2023-05-22T03:40:54.660Z,17.80
2023-05-22T03:43:22.246Z,18.37
2023-05-22T03:45:50.402Z,17.10
2023-05-22T03:48:19.415Z,16.83
2023-05-22T03:50:47.057Z,16.73
2023-05-22T03:53:14.694Z,15.40
2023-05-22T03:55:42.309Z,17.07
2023-05-22T03:58:10.056Z,15.53
2023-05-22T04:00:38.410Z,17.50
2023-05-22T04:03:07.265Z,15.97
2023-05-22T04:05:36.543Z,16.40
2023-05-22T04:08:04.444Z,16.40
2023-05-22T04:10:32.135Z,16.20
2023-05-22T04:13:00.344Z,15.30
2023-05-22T04:15:28.379Z,16.20
2023-05-22T04:17:56.646Z,15.83
2023-05-22T04:20:24.437Z,17.37
2023-05-22T04:22:54.426Z,16.87
2023-05-22T04:25:22.616Z,16.43
2023-05-22T04:27:50.578Z,14.60
2023-05-22T04:30:18.549Z,15.77
2023-05-22T04:32:46.398Z,15.87
2023-05-22T04:35:18.519Z,15.50
2023-05-22T04:37:46.525Z,13.97
2023-05-22T04:40:15.782Z,14.23
2023-05-22T04:42:44.065Z,14.30
2023-05-22T04:45:14.007Z,14.67
2023-05-22T04:47:42.258Z,14.60
2023-05-22T04:50:10.584Z,13.60
2023-05-22T04:52:38.515Z,14.00
2023-05-22T04:55:07.446Z,14.00
2023-05-22T04:57:36.436Z,14.37
2023-05-22T05:00:06.290Z,14.37
2023-05-22T05:02:33.962Z,13.70
2023-05-22T05:05:01.640Z,13.40
2023-05-22T05:07:29.386Z,12.87
2023-05-22T05:09:57.143Z,13.30
2023-05-22T05:12:24.861Z,12.80
2023-05-22T05:14:53.924Z,11.27
2023-05-22T05:17:22.353Z,11.77
2023-05-22T05:19:50.246Z,11.67
2023-05-22T05:22:18.115Z,11.70
2023-05-22T05:24:45.817Z,10.87
2023-05-22T05:27:13.871Z,10.93
2023-05-22T05:29:41.746Z,10.40
2023-05-22T05:32:12.095Z,10.50
2023-05-22T05:34:39.733Z,10.50
2023-05-22T05:37:07.372Z,9.20
2023-05-22T05:39:34.989Z,9.20
2023-05-22T05:42:02.626Z,9.47
2023-05-22T05:44:30.268Z,9.03
2023-05-22T05:47:00.998Z,9.43
2023-05-22T05:49:30.100Z,9.83
2023-05-22T05:51:57.943Z,8.90
2023-05-22T05:54:27.101Z,8.33
2023-05-22T05:56:54.766Z,9.67
2023-05-22T05:59:22.408Z,9.63
2023-05-22T06:01:50.606Z,9.70
2023-05-22T06:04:18.231Z,9.27
2023-05-22T06:06:47.794Z,9.23
2023-05-22T06:09:15.504Z,10.60
2023-05-22T06:11:43.209Z,8.73
2023-05-22T06:14:10.977Z,9.33
2023-05-22T06:16:39.017Z,8.40
2023-05-22T06:19:06.746Z,8.77
2023-05-22T06:21:34.358Z,9.03
2023-05-22T06:24:03.433Z,8.80
2023-05-22T06:26:31.645Z,8.27
2023-05-22T06:28:59.376Z,8.70
2023-05-22T06:31:28.099Z,9.20
2023-05-22T06:33:55.935Z,9.03
2023-05-22T06:36:23.636Z,8.60
2023-05-22T06:38:51.833Z,8.50
2023-05-22T06:41:21.096Z,8.77
2023-05-22T06:43:48.774Z,8.30
2023-05-22T06:46:16.413Z,8.60
2023-05-22T06:48:44.130Z,8.00
2023-05-22T06:51:12.766Z,9.87
2023-05-22T06:53:40.519Z,8.80
2023-05-22T06:56:08.337Z,9.47
2023-05-22T06:58:37.289Z,7.90
2023-05-22T07:01:05.832Z,9.23
2023-05-22T07:03:33.513Z,7.83
2023-05-22T07:06:02.222Z,8.83
2023-05-22T07:08:30.752Z,8.60
2023-05-22T07:10:58.603Z,7.97
2023-05-22T07:13:26.228Z,9.20
2023-05-22T07:15:55.267Z,8.40
2023-05-22T07:18:22.897Z,7.50
2023-05-22T07:20:50.551Z,7.47
2023-05-22T07:23:18.209Z,8.47
2023-05-22T07:25:45.889Z,8.00
2023-05-22T07:28:13.905Z,8.13
2023-05-22T07:30:41.682Z,7.07
2023-05-22T07:33:11.659Z,7.53
2023-05-22T07:35:39.336Z,8.70
2023-05-22T07:38:07.016Z,7.63
2023-05-22T07:40:34.660Z,7.33
2023-05-22T07:43:02.265Z,6.73
2023-05-22T07:45:29.816Z,7.57
2023-05-22T07:47:58.970Z,7.50
2023-05-22T07:50:30.486Z,7.70
2023-05-22T07:52:58.171Z,7.83
2023-05-22T07:55:26.277Z,7.70
2023-05-22T07:57:53.976Z,7.37
2023-05-22T08:00:22.666Z,7.80
2023-05-22T08:02:50.358Z,7.40
2023-05-22T08:05:18.074Z,7.63
2023-05-22T08:07:47.153Z,8.27
2023-05-22T08:10:16.187Z,7.63
2023-05-22T08:12:44.324Z,7.30
2023-05-22T08:15:12.807Z,8.20
2023-05-22T08:17:40.723Z,8.23
2023-05-22T08:20:10.307Z,8.00
2023-05-22T08:22:40.293Z,8.80
2023-05-22T08:25:10.553Z,8.23
2023-05-22T08:27:38.225Z,8.90
2023-05-22T08:30:07.183Z,8.10
2023-05-22T08:32:35.112Z,8.47
2023-05-22T08:35:02.867Z,9.30
2023-05-22T08:37:30.558Z,9.00
2023-05-22T08:39:58.162Z,8.40
2023-05-22T08:42:27.229Z,7.87
2023-05-22T08:44:57.942Z,8.23
2023-05-22T08:47:28.425Z,8.80
2023-05-22T08:49:58.301Z,8.20
2023-05-22T08:52:33.912Z,8.40
2023-05-22T08:55:05.007Z,8.10
2023-05-22T08:57:35.011Z,7.57
2023-05-22T09:00:02.716Z,8.63
2023-05-22T09:02:30.610Z,8.57
2023-05-22T09:04:58.245Z,8.43
2023-05-22T09:07:27.886Z,7.57
2023-05-22T09:09:55.510Z,8.13
2023-05-22T09:12:23.147Z,7.60
2023-05-22T09:14:53.466Z,7.70
2023-05-22T09:17:22.930Z,8.30
2023-05-22T09:19:50.757Z,9.03
2023-05-22T09:22:18.571Z,7.53
2023-05-22T09:24:47.029Z,8.27
2023-05-22T09:27:14.769Z,8.13
2023-05-22T09:29:49.474Z,8.10
2023-05-22T09:32:19.779Z,8.17
2023-05-22T09:34:47.786Z,8.20
2023-05-22T09:37:15.725Z,7.80
2023-05-22T09:39:45.241Z,8.07
2023-05-22T09:42:17.082Z,7.63
2023-05-22T09:44:49.628Z,8.60
2023-05-22T09:47:18.715Z,9.07
2023-05-22T09:49:47.064Z,8.50
2023-05-22T09:52:15.604Z,7.80
2023-05-22T09:54:50.959Z,8.00
2023-05-22T09:57:20.221Z,8.47
2023-05-22T09:59:54.138Z,8.37
2023-05-22T10:02:24.666Z,8.00
2023-05-22T10:04:53.419Z,9.70
2023-05-22T10:07:24.267Z,8.70
2023-05-22T10:09:57.373Z,8.93
2023-05-22T10:12:29.844Z,8.57
2023-05-22T10:14:57.754Z,8.70
2023-05-22T10:17:27.989Z,8.80
2023-05-22T10:19:58.632Z,9.10
2023-05-22T10:22:28.544Z,8.80
2023-05-22T10:24:56.408Z,8.20
2023-05-22T10:27:24.015Z,7.87
2023-05-22T10:29:56.906Z,8.90
2023-05-22T10:32:34.254Z,8.07
2023-05-22T10:35:09.873Z,8.60
2023-05-22T10:37:50.056Z,8.77
2023-05-22T10:40:28.671Z,9.33
2023-05-22T10:43:00.701Z,10.13
2023-05-22T10:45:29.538Z,9.23
2023-05-22T10:48:06.068Z,9.67
2023-05-22T10:50:34.513Z,9.10
2023-05-22T10:53:23.253Z,9.47
2023-05-22T10:55:52.011Z,8.97
2023-05-22T10:58:26.304Z,10.20
2023-05-22T11:01:10.029Z,9.13
2023-05-22T11:03:58.136Z,9.27
2023-05-22T11:06:38.107Z,9.10
2023-05-22T11:09:29.083Z,8.00
2023-05-22T11:12:17.530Z,8.80
2023-05-22T11:14:50.125Z,7.80
2023-05-22T11:17:19.687Z,10.23
2023-05-22T11:19:58.910Z,9.60
2023-05-22T11:22:32.503Z,8.60
2023-05-22T11:25:00.728Z,8.63
2023-05-22T11:27:29.593Z,9.37
2023-05-22T11:29:57.577Z,8.60
2023-05-22T11:32:25.766Z,9.17
2023-05-22T11:34:56.789Z,9.57
2023-05-22T11:37:24.701Z,9.53
2023-05-22T11:39:53.168Z,9.77
2023-05-22T11:42:21.212Z,9.50
2023-05-22T11:44:48.951Z,11.27
2023-05-22T11:47:16.761Z,9.83
2023-05-22T11:49:45.166Z,10.13
2023-05-22T11:52:14.666Z,9.67
2023-05-22T11:54:42.302Z,10.00
2023-05-22T11:57:10.349Z,10.37
2023-05-22T11:59:37.982Z,8.30
2023-05-22T12:02:06.038Z,8.47
2023-05-22T12:04:33.875Z,8.80
2023-05-22T12:07:01.665Z,8.17
2023-05-22T12:09:30.838Z,8.40
2023-05-22T12:11:59.834Z,8.77
2023-05-22T12:14:28.247Z,8.33
2023-05-22T12:17:00.027Z,8.67
2023-05-22T12:19:28.646Z,8.83
2023-05-22T12:21:56.389Z,9.20
2023-05-22T12:24:24.227Z,9.70
2023-05-22T12:26:54.031Z,9.40
2023-05-22T12:29:24.036Z,8.43
2023-05-22T12:31:52.266Z,8.80
2023-05-22T12:34:20.042Z,9.43
2023-05-22T12:36:49.204Z,9.53
2023-05-22T12:39:18.165Z,8.50
2023-05-22T12:41:46.507Z,9.20
2023-05-22T12:44:16.812Z,9.53
2023-05-22T12:46:44.673Z,9.60
2023-05-22T12:49:12.542Z,9.50
2023-05-22T12:51:40.277Z,8.83
2023-05-22T12:54:08.227Z,9.10
2023-05-22T12:56:35.900Z,9.60
2023-05-22T12:59:03.933Z,7.57
2023-05-22T13:01:33.153Z,7.23
2023-05-22T13:04:00.907Z,7.83
2023-05-22T13:06:30.286Z,7.50
2023-05-22T13:09:00.689Z,7.50
2023-05-22T13:11:28.405Z,8.20
2023-05-22T13:13:56.068Z,7.33
2023-05-22T13:16:23.756Z,8.10
2023-05-22T13:18:52.891Z,7.47
2023-05-22T13:21:20.638Z,7.43
2023-05-22T13:23:48.325Z,7.10
2023-05-22T13:26:16.543Z,7.53
2023-05-22T13:28:44.226Z,7.80
2023-05-22T13:31:12.215Z,7.73
2023-05-22T13:33:39.963Z,8.47
2023-05-22T13:36:09.267Z,7.67
2023-05-22T13:38:36.943Z,6.37
2023-05-22T13:41:04.627Z,7.50
2023-05-22T13:43:32.404Z,7.70
2023-05-22T13:46:00.150Z,7.30
2023-05-22T13:48:27.831Z,6.60
2023-05-22T13:50:55.447Z,7.43
2023-05-22T13:53:24.461Z,7.70
2023-05-22T13:55:52.169Z,7.67
2023-05-22T13:58:19.842Z,6.70
2023-05-22T14:00:47.655Z,6.83
2023-05-22T14:03:17.506Z,7.57
2023-05-22T14:05:45.729Z,7.00
2023-05-22T14:08:13.669Z,6.43
2023-05-22T14:10:42.831Z,6.53
2023-05-22T14:13:10.478Z,6.43
2023-05-22T14:15:38.196Z,6.60
2023-05-22T14:18:06.202Z,6.60
2023-05-22T14:20:33.852Z,6.37
2023-05-22T14:23:01.507Z,6.57
2023-05-22T14:25:29.196Z,7.23
2023-05-22T14:27:58.136Z,7.53
2023-05-22T14:30:25.797Z,7.13
2023-05-22T14:32:54.093Z,7.40
2023-05-22T14:35:22.182Z,6.77
2023-05-22T14:37:49.933Z,6.50
2023-05-22T14:40:17.894Z,7.17
2023-05-22T14:42:45.938Z,7.67
2023-05-22T14:45:14.985Z,6.80
2023-05-22T14:47:43.507Z,6.90
2023-05-22T14:50:18.998Z,6.67
2023-05-22T14:52:48.128Z,6.63
2023-05-22T14:55:16.241Z,6.30
2023-05-22T14:57:44.040Z,6.80
2023-05-22T15:00:13.094Z,6.07
2023-05-22T15:02:42.132Z,7.03
2023-05-22T15:05:10.687Z,6.10
2023-05-22T15:07:44.552Z,6.43
2023-05-22T15:10:13.850Z,6.40
2023-05-22T15:12:41.566Z,6.13
2023-05-22T15:15:10.087Z,5.57
2023-05-22T15:17:38.901Z,7.47
2023-05-22T15:20:11.316Z,6.10
2023-05-22T15:22:39.355Z,6.17
2023-05-22T15:25:08.852Z,6.80
2023-05-22T15:27:36.732Z,5.90
2023-05-22T15:30:06.593Z,6.93
2023-05-22T15:32:34.377Z,6.83
2023-05-22T15:35:02.145Z,6.43
2023-05-22T15:37:33.583Z,6.00
2023-05-22T15:40:02.223Z,6.07
2023-05-22T15:42:30.041Z,6.90
2023-05-22T15:45:00.253Z,5.80
2023-05-22T15:47:28.048Z,6.17
2023-05-22T15:49:55.808Z,6.43
2023-05-22T15:52:25.013Z,6.00
2023-05-22T15:54:55.694Z,6.33
2023-05-22T15:57:24.735Z,6.67
2023-05-22T15:59:52.317Z,6.27
2023-05-22T16:02:20.106Z,6.30
2023-05-22T16:04:47.818Z,6.70
2023-05-22T16:07:15.515Z,6.17
2023-05-22T16:09:43.392Z,5.50
2023-05-22T16:12:12.417Z,7.33
2023-05-22T16:14:40.497Z,5.80
2023-05-22T16:17:08.242Z,6.13
2023-05-22T16:19:36.135Z,6.10
2023-05-22T16:22:04.078Z,6.10
2023-05-22T16:24:31.739Z,6.70
2023-05-22T16:27:00.727Z,6.70
2023-05-22T16:29:31.399Z,7.07
2023-05-22T16:31:59.464Z,6.00
2023-05-22T16:34:27.226Z,4.97
2023-05-22T16:36:54.849Z,7.47
2023-05-22T16:39:22.480Z,6.80
2023-05-22T16:41:51.638Z,6.47
2023-05-22T16:44:21.459Z,6.37
2023-05-22T16:46:50.510Z,6.47
2023-05-22T16:49:18.930Z,5.73
2023-05-22T16:51:46.725Z,6.70
2023-05-22T16:54:14.762Z,6.67
2023-05-22T16:56:42.578Z,6.07
2023-05-22T16:59:10.292Z,7.07
2023-05-22T17:01:38.145Z,7.50
2023-05-22T17:04:07.813Z,7.23
2023-05-22T17:06:35.619Z,5.60
2023-05-22T17:09:03.450Z,5.50
2023-05-22T17:11:31.055Z,5.73
2023-05-22T17:13:58.637Z,6.23
2023-05-22T17:16:26.324Z,6.57
2023-05-22T17:18:55.082Z,6.77
2023-05-22T17:21:24.241Z,6.17
2023-05-22T17:23:51.929Z,5.40
2023-05-22T17:26:19.688Z,6.60
2023-05-22T17:28:47.485Z,6.57
2023-05-22T17:31:15.173Z,5.73
2023-05-22T17:33:43.288Z,5.87
2023-05-22T17:36:11.103Z,6.20
2023-05-22T17:38:40.138Z,6.20
2023-05-22T17:41:07.755Z,6.40
2023-05-22T17:43:36.762Z,6.90
2023-05-22T17:46:04.923Z,7.70
2023-05-22T17:48:33.117Z,37.80
2023-05-22T17:51:01.165Z,41.77
2023-05-22T17:53:32.090Z,15.70
2023-05-22T17:56:01.840Z,43.63
2023-05-22T17:58:29.583Z,33.50
2023-05-22T18:00:58.157Z,33.60
2023-05-22T18:03:26.302Z,22.97
2023-05-22T18:05:54.020Z,16.00
2023-05-22T18:08:21.830Z,338.77
2023-05-22T18:10:49.998Z,419.00
2023-05-22T18:13:19.698Z,266.17
2023-05-22T18:15:49.422Z,37.20
2023-05-22T18:18:17.364Z,26.70
2023-05-22T18:20:46.125Z,24.00
2023-05-22T18:23:13.787Z,22.43
2023-05-22T18:25:41.457Z,20.73
2023-05-22T18:28:09.201Z,20.13
2023-05-22T18:30:38.349Z,20.80
2023-05-22T18:33:08.520Z,19.33
2023-05-22T18:35:36.286Z,20.00
2023-05-22T18:38:04.001Z,20.37
2023-05-22T18:40:32.041Z,19.70
2023-05-22T18:43:00.023Z,19.93
2023-05-22T18:45:27.646Z,19.20
2023-05-22T18:47:58.087Z,20.03
2023-05-22T18:50:26.287Z,20.17
2023-05-22T18:52:53.917Z,19.57
2023-05-22T18:55:22.019Z,18.20
2023-05-22T18:57:49.699Z,19.67
2023-05-22T19:00:17.821Z,19.50
2023-05-22T19:02:45.521Z,19.27
2023-05-22T19:05:16.388Z,20.33
2023-05-22T19:07:44.068Z,22.27
2023-05-22T19:10:12.184Z,33.50
2023-05-22T19:12:39.958Z,111.27
2023-05-22T19:15:08.768Z,324.37
2023-05-22T19:17:36.446Z,422.97
2023-05-22T19:20:06.525Z,449.03
2023-05-22T19:22:37.149Z,454.83
2023-05-22T19:25:06.303Z,463.13
2023-05-22T19:27:36.720Z,452.73
2023-05-22T19:30:07.940Z,449.50
2023-05-22T19:32:36.832Z,437.13
2023-05-22T19:35:04.693Z,399.73
2023-05-22T19:37:32.559Z,392.83
2023-05-22T19:40:01.561Z,391.33
2023-05-22T19:42:29.214Z,326.73
2023-05-22T19:44:56.849Z,311.90
2023-05-22T19:47:25.365Z,278.70
2023-05-22T19:49:53.004Z,228.90
2023-05-22T19:52:20.775Z,229.53
2023-05-22T19:54:48.463Z,226.63
2023-05-22T19:57:19.941Z,252.83
2023-05-22T19:59:47.666Z,225.90
2023-05-22T20:02:15.504Z,185.80
2023-05-22T20:04:44.061Z,136.00
2023-05-22T20:07:11.712Z,105.97
2023-05-22T20:09:39.332Z,58.27
2023-05-22T20:12:07.952Z,30.30
2023-05-22T20:14:37.133Z,23.70
2023-05-22T20:17:05.457Z,21.60
2023-05-22T20:19:34.551Z,22.50
2023-05-22T20:22:04.921Z,21.40
2023-05-22T20:24:32.556Z,20.00
2023-05-22T20:27:01.108Z,20.80
2023-05-22T20:29:28.806Z,19.80
2023-05-22T20:31:57.950Z,18.70
2023-05-22T20:34:26.502Z,19.77
2023-05-22T20:36:54.323Z,15.87
2023-05-22T20:39:22.303Z,16.10
2023-05-22T20:41:50.633Z,15.63
2023-05-22T20:44:19.321Z,17.47
2023-05-22T20:46:46.979Z,15.33
2023-05-22T20:49:17.517Z,15.90
2023-05-22T20:51:45.997Z,14.70
2023-05-22T20:54:13.602Z,14.60
2023-05-22T20:56:41.190Z,15.37
2023-05-22T20:59:08.970Z,15.60
2023-05-22T21:01:36.718Z,16.60
2023-05-22T21:04:06.577Z,16.93
2023-05-22T21:06:36.118Z,16.70
2023-05-22T21:09:04.974Z,16.53
2023-05-22T21:11:32.583Z,16.50
2023-05-22T21:14:00.234Z,16.30
2023-05-22T21:16:27.909Z,16.50
2023-05-22T21:18:55.730Z,16.33
2023-05-22T21:21:23.365Z,15.80
2023-05-22T21:23:52.510Z,16.87
2023-05-22T21:26:22.235Z,17.00
2023-05-22T21:28:50.368Z,16.00
2023-05-22T21:31:18.092Z,16.63
2023-05-22T21:33:46.181Z,16.90
2023-05-22T21:36:13.871Z,16.70
2023-05-22T21:38:41.473Z,18.47
2023-05-22T21:41:11.516Z,18.17
2023-05-22T21:43:39.133Z,18.03
2023-05-22T21:46:06.774Z,17.80
2023-05-22T21:48:34.509Z,17.70
2023-05-22T21:51:02.132Z,19.10
2023-05-22T21:53:29.916Z,17.80
2023-05-22T21:55:57.573Z,19.03
2023-05-22T21:58:26.588Z,19.17
2023-05-22T22:00:54.242Z,19.67
2023-05-22T22:03:21.936Z,19.00
2023-05-22T22:05:49.631Z,18.90
2023-05-22T22:08:17.791Z,19.80
2023-05-22T22:10:45.625Z,18.67
2023-05-22T22:13:13.284Z,19.37
2023-05-22T22:15:42.248Z,20.17
2023-05-22T22:18:09.935Z,21.03
2023-05-22T22:20:44.109Z,19.10
2023-05-22T22:23:13.367Z,18.70
2023-05-22T22:25:41.045Z,18.40
2023-05-22T22:28:09.017Z,19.40
2023-05-22T22:30:36.604Z,20.10
2023-05-22T22:33:06.242Z,18.90
2023-05-22T22:35:33.974Z,19.53
2023-05-22T22:38:01.659Z,18.40
2023-05-22T22:40:29.314Z,19.40
2023-05-22T22:42:57.060Z,20.00
2023-05-22T22:45:26.140Z,18.23
2023-05-22T22:47:56.497Z,17.93
2023-05-22T22:50:25.862Z,18.47
2023-05-22T22:52:53.650Z,18.60
2023-05-22T22:55:21.676Z,18.73
2023-05-22T22:57:50.108Z,17.73
2023-05-22T23:00:18.951Z,17.10
2023-05-22T23:02:46.903Z,19.00
2023-05-22T23:05:14.965Z,19.13
2023-05-22T23:07:44.359Z,19.17
2023-05-22T23:10:12.224Z,18.17
2023-05-22T23:12:39.864Z,18.20
2023-05-22T23:15:09.144Z,19.30
2023-05-22T23:17:36.860Z,19.10
2023-05-22T23:20:05.398Z,19.20
2023-05-22T23:22:33.048Z,18.03
2023-05-22T23:25:02.080Z,18.43
2023-05-22T23:27:29.693Z,18.83
2023-05-22T23:29:57.847Z,17.93
2023-05-22T23:32:25.714Z,18.37
2023-05-22T23:34:53.409Z,18.77
2023-05-22T23:37:21.096Z,18.47
2023-05-22T23:39:48.801Z,19.47
2023-05-22T23:42:17.843Z,18.87
2023-05-22T23:44:45.519Z,17.90
2023-05-22T23:47:13.181Z,17.90
2023-05-22T23:49:40.791Z,17.30
2023-05-22T23:52:08.436Z,18.90
2023-05-22T23:54:36.128Z,18.37
2023-05-22T23:57:03.781Z,18.30
2023-05-22T23:59:32.729Z,16.50
